sensor_id;sensor_type;location;lat;lon;timestamp;pressure;altitude;pressure_sealevel;temperature;humidity
78431;BME280;67727;50.236;22.452;2023-06-14T00:00:14;99615.44;;;13.59;76.32
78431;BME280;67727;50.236;22.452;2023-06-14T00:03:02;99616.65;;;13.59;76.45
78431;BME280;67727;50.236;22.452;2023-06-14T00:05:30;99613.16;;;13.60;76.44
78431;BME280;67727;50.236;22.452;2023-06-14T00:07:59;99610.73;;;13.60;76.70
78431;BME280;67727;50.236;22.452;2023-06-14T00:10:27;99601.51;;;13.57;76.60
78431;BME280;67727;50.236;22.452;2023-06-14T00:12:57;99598.59;;;13.56;76.63
78431;BME280;67727;50.236;22.452;2023-06-14T00:15:26;99592.28;;;13.54;76.62
78431;BME280;67727;50.236;22.452;2023-06-14T00:17:53;99588.27;;;13.52;76.69
78431;BME280;67727;50.236;22.452;2023-06-14T00:20:21;99577.46;;;13.51;76.91
78431;BME280;67727;50.236;22.452;2023-06-14T00:22:48;99569.11;;;13.50;76.95
78431;BME280;67727;50.236;22.452;2023-06-14T00:25:14;99563.33;;;13.46;77.30
78431;BME280;67727;50.236;22.452;2023-06-14T00:27:41;99555.63;;;13.40;77.48
78431;BME280;67727;50.236;22.452;2023-06-14T00:30:08;99550.94;;;13.35;77.51
78431;BME280;67727;50.236;22.452;2023-06-14T00:32:35;99555.46;;;13.31;77.58
78431;BME280;67727;50.236;22.452;2023-06-14T00:35:02;99553.91;;;13.28;77.62
78431;BME280;67727;50.236;22.452;2023-06-14T00:37:29;99557.68;;;13.25;77.92
78431;BME280;67727;50.236;22.452;2023-06-14T00:39:56;99558.21;;;13.20;78.14
78431;BME280;67727;50.236;22.452;2023-06-14T00:42:26;99563.92;;;13.12;78.31
78431;BME280;67727;50.236;22.452;2023-06-14T00:44:54;99566.01;;;13.09;78.50
78431;BME280;67727;50.236;22.452;2023-06-14T00:47:21;99573.84;;;13.07;78.70
78431;BME280;67727;50.236;22.452;2023-06-14T00:49:49;99574.30;;;13.08;78.63
78431;BME280;67727;50.236;22.452;2023-06-14T00:52:17;99573.59;;;13.09;78.76
78431;BME280;67727;50.236;22.452;2023-06-14T00:54:44;99575.15;;;13.12;78.89
78431;BME280;67727;50.236;22.452;2023-06-14T00:57:12;99575.77;;;13.14;78.90
78431;BME280;67727;50.236;22.452;2023-06-14T00:59:44;99575.52;;;13.18;78.72
78431;BME280;67727;50.236;22.452;2023-06-14T01:02:12;99576.95;;;13.20;78.68
78431;BME280;67727;50.236;22.452;2023-06-14T01:04:44;99573.08;;;13.20;78.53
78431;BME280;67727;50.236;22.452;2023-06-14T01:10:15;99566.64;;;13.24;78.67
78431;BME280;67727;50.236;22.452;2023-06-14T01:15:20;99557.52;;;13.26;78.59
78431;BME280;67727;50.236;22.452;2023-06-14T01:17:50;99554.53;;;13.22;78.67
78431;BME280;67727;50.236;22.452;2023-06-14T01:20:21;99553.77;;;13.18;78.69
78431;BME280;67727;50.236;22.452;2023-06-14T01:22:54;99555.16;;;13.16;78.75
78431;BME280;67727;50.236;22.452;2023-06-14T01:25:21;99560.48;;;13.17;78.87
78431;BME280;67727;50.236;22.452;2023-06-14T01:28:04;99563.31;;;13.20;78.76
78431;BME280;67727;50.236;22.452;2023-06-14T01:30:40;99561.45;;;13.22;78.87
78431;BME280;67727;50.236;22.452;2023-06-14T01:33:13;99554.73;;;13.23;79.10
78431;BME280;67727;50.236;22.452;2023-06-14T01:35:44;99556.30;;;13.21;79.10
78431;BME280;67727;50.236;22.452;2023-06-14T01:38:13;99549.71;;;13.18;79.10
78431;BME280;67727;50.236;22.452;2023-06-14T01:40:42;99545.60;;;13.14;79.29
78431;BME280;67727;50.236;22.452;2023-06-14T01:43:11;99542.27;;;13.11;79.32
78431;BME280;67727;50.236;22.452;2023-06-14T01:45:40;99544.27;;;13.11;79.28
78431;BME280;67727;50.236;22.452;2023-06-14T01:48:08;99548.57;;;13.10;79.05
78431;BME280;67727;50.236;22.452;2023-06-14T01:50:36;99551.48;;;13.11;79.14
78431;BME280;67727;50.236;22.452;2023-06-14T01:53:03;99552.55;;;13.13;79.23
78431;BME280;67727;50.236;22.452;2023-06-14T01:55:30;99550.84;;;13.14;79.23
78431;BME280;67727;50.236;22.452;2023-06-14T01:58:04;99547.06;;;13.13;79.09
78431;BME280;67727;50.236;22.452;2023-06-14T02:00:31;99542.14;;;13.08;79.26
78431;BME280;67727;50.236;22.452;2023-06-14T02:02:58;99547.50;;;13.02;79.26
78431;BME280;67727;50.236;22.452;2023-06-14T02:05:25;99552.18;;;12.98;79.37
78431;BME280;67727;50.236;22.452;2023-06-14T02:07:52;99554.23;;;12.96;79.39
78431;BME280;67727;50.236;22.452;2023-06-14T02:10:22;99557.06;;;12.94;79.42
78431;BME280;67727;50.236;22.452;2023-06-14T02:12:49;99560.15;;;12.95;79.19
78431;BME280;67727;50.236;22.452;2023-06-14T02:15:15;99564.73;;;12.97;79.32
78431;BME280;67727;50.236;22.452;2023-06-14T02:17:46;99563.07;;;12.98;79.58
78431;BME280;67727;50.236;22.452;2023-06-14T02:20:16;99565.93;;;12.98;79.48
78431;BME280;67727;50.236;22.452;2023-06-14T02:22:44;99565.09;;;12.95;79.51
78431;BME280;67727;50.236;22.452;2023-06-14T02:25:12;99562.33;;;12.92;79.41
78431;BME280;67727;50.236;22.452;2023-06-14T02:27:38;99565.11;;;12.91;79.68
78431;BME280;67727;50.236;22.452;2023-06-14T02:30:06;99562.16;;;12.92;79.77
78431;BME280;67727;50.236;22.452;2023-06-14T02:32:33;99559.44;;;12.93;79.63
78431;BME280;67727;50.236;22.452;2023-06-14T02:35:03;99552.27;;;12.93;79.88
78431;BME280;67727;50.236;22.452;2023-06-14T02:37:30;99551.10;;;12.88;79.99
78431;BME280;67727;50.236;22.452;2023-06-14T02:39:58;99545.69;;;12.88;80.10
78431;BME280;67727;50.236;22.452;2023-06-14T02:42:25;99541.05;;;12.89;80.19
78431;BME280;67727;50.236;22.452;2023-06-14T02:44:52;99539.86;;;12.90;80.14
78431;BME280;67727;50.236;22.452;2023-06-14T02:47:19;99535.55;;;12.89;80.13
78431;BME280;67727;50.236;22.452;2023-06-14T02:49:46;99535.08;;;12.86;80.13
78431;BME280;67727;50.236;22.452;2023-06-14T02:52:16;99540.27;;;12.85;80.09
78431;BME280;67727;50.236;22.452;2023-06-14T02:54:42;99546.90;;;12.86;79.94
78431;BME280;67727;50.236;22.452;2023-06-14T02:57:09;99545.42;;;12.88;79.87
78431;BME280;67727;50.236;22.452;2023-06-14T02:59:37;99540.91;;;12.89;79.93
78431;BME280;67727;50.236;22.452;2023-06-14T03:02:04;99541.77;;;12.90;80.00
78431;BME280;67727;50.236;22.452;2023-06-14T03:04:31;99543.97;;;12.94;79.95
78431;BME280;67727;50.236;22.452;2023-06-14T03:07:03;99545.50;;;12.96;79.77
78431;BME280;67727;50.236;22.452;2023-06-14T03:09:36;99540.14;;;12.96;79.83
78431;BME280;67727;50.236;22.452;2023-06-14T03:12:06;99540.16;;;12.94;79.83
78431;BME280;67727;50.236;22.452;2023-06-14T03:14:34;99542.19;;;12.91;79.89
78431;BME280;67727;50.236;22.452;2023-06-14T03:17:04;99540.13;;;12.87;79.95
78431;BME280;67727;50.236;22.452;2023-06-14T03:19:31;99548.20;;;12.85;79.96
78431;BME280;67727;50.236;22.452;2023-06-14T03:21:58;99551.95;;;12.87;79.88
78431;BME280;67727;50.236;22.452;2023-06-14T03:24:25;99554.51;;;12.89;80.03
78431;BME280;67727;50.236;22.452;2023-06-14T03:26:55;99558.52;;;12.92;80.14
78431;BME280;67727;50.236;22.452;2023-06-14T03:29:23;99557.52;;;12.95;80.16
78431;BME280;67727;50.236;22.452;2023-06-14T03:32:01;99560.52;;;12.96;80.05
78431;BME280;67727;50.236;22.452;2023-06-14T03:34:28;99561.88;;;12.97;80.16
78431;BME280;67727;50.236;22.452;2023-06-14T03:36:55;99566.05;;;12.97;80.18
78431;BME280;67727;50.236;22.452;2023-06-14T03:39:22;99573.06;;;12.98;80.21
78431;BME280;67727;50.236;22.452;2023-06-14T03:41:49;99575.98;;;13.00;80.24
78431;BME280;67727;50.236;22.452;2023-06-14T03:44:17;99580.88;;;13.02;80.22
78431;BME280;67727;50.236;22.452;2023-06-14T03:46:47;99580.38;;;13.02;80.21
78431;BME280;67727;50.236;22.452;2023-06-14T03:49:14;99580.68;;;12.99;80.18
78431;BME280;67727;50.236;22.452;2023-06-14T03:51:43;99576.43;;;12.95;80.23
78431;BME280;67727;50.236;22.452;2023-06-14T03:54:10;99576.70;;;12.93;80.36
78431;BME280;67727;50.236;22.452;2023-06-14T03:56:36;99580.50;;;12.93;80.22
78431;BME280;67727;50.236;22.452;2023-06-14T03:59:03;99581.91;;;12.94;80.25
78431;BME280;67727;50.236;22.452;2023-06-14T04:01:30;99578.49;;;12.96;80.54
78431;BME280;67727;50.236;22.452;2023-06-14T04:03:58;99576.90;;;12.96;80.51
78431;BME280;67727;50.236;22.452;2023-06-14T04:06:25;99577.84;;;12.95;80.42
78431;BME280;67727;50.236;22.452;2023-06-14T04:08:59;99584.46;;;12.95;80.52
78431;BME280;67727;50.236;22.452;2023-06-14T04:11:30;99586.15;;;12.93;80.67
78431;BME280;67727;50.236;22.452;2023-06-14T04:13:58;99585.70;;;12.91;80.67
78431;BME280;67727;50.236;22.452;2023-06-14T04:16:25;99583.65;;;12.90;80.64
78431;BME280;67727;50.236;22.452;2023-06-14T04:18:53;99583.41;;;12.92;80.66
78431;BME280;67727;50.236;22.452;2023-06-14T04:21:21;99581.65;;;12.92;80.75
78431;BME280;67727;50.236;22.452;2023-06-14T04:23:50;99581.56;;;12.92;80.78
78431;BME280;67727;50.236;22.452;2023-06-14T04:26:19;99584.14;;;12.95;80.84
78431;BME280;67727;50.236;22.452;2023-06-14T04:28:46;99578.25;;;12.95;80.93
78431;BME280;67727;50.236;22.452;2023-06-14T04:31:13;99579.77;;;12.95;80.92
78431;BME280;67727;50.236;22.452;2023-06-14T04:33:40;99580.44;;;12.94;80.95
78431;BME280;67727;50.236;22.452;2023-06-14T04:36:11;99574.05;;;12.94;80.91
78431;BME280;67727;50.236;22.452;2023-06-14T04:38:44;99569.33;;;12.97;80.84
78431;BME280;67727;50.236;22.452;2023-06-14T04:41:15;99574.10;;;13.00;80.84
78431;BME280;67727;50.236;22.452;2023-06-14T04:43:42;99581.48;;;13.04;80.82
78431;BME280;67727;50.236;22.452;2023-06-14T04:46:09;99582.59;;;13.11;80.73
78431;BME280;67727;50.236;22.452;2023-06-14T04:48:41;99581.06;;;13.16;80.77
78431;BME280;67727;50.236;22.452;2023-06-14T04:51:09;99583.73;;;13.23;80.59
78431;BME280;67727;50.236;22.452;2023-06-14T04:53:36;99582.02;;;13.28;80.44
78431;BME280;67727;50.236;22.452;2023-06-14T04:56:03;99588.67;;;13.31;80.60
78431;BME280;67727;50.236;22.452;2023-06-14T04:58:30;99590.17;;;13.36;80.41
78431;BME280;67727;50.236;22.452;2023-06-14T05:00:59;99594.38;;;13.41;80.40
78431;BME280;67727;50.236;22.452;2023-06-14T05:03:25;99592.42;;;13.45;80.44
78431;BME280;67727;50.236;22.452;2023-06-14T05:05:53;99594.34;;;13.49;80.18
78431;BME280;67727;50.236;22.452;2023-06-14T05:08:21;99592.80;;;13.53;80.26
78431;BME280;67727;50.236;22.452;2023-06-14T05:10:50;99595.27;;;13.57;80.18
78431;BME280;67727;50.236;22.452;2023-06-14T05:13:17;99592.99;;;13.60;80.20
78431;BME280;67727;50.236;22.452;2023-06-14T05:15:45;99598.02;;;13.62;80.46
78431;BME280;67727;50.236;22.452;2023-06-14T05:18:11;99596.26;;;13.66;80.29
78431;BME280;67727;50.236;22.452;2023-06-14T05:20:39;99600.90;;;13.71;80.23
78431;BME280;67727;50.236;22.452;2023-06-14T05:23:08;99601.46;;;13.76;80.18
78431;BME280;67727;50.236;22.452;2023-06-14T05:25:35;99599.73;;;13.81;80.13
78431;BME280;67727;50.236;22.452;2023-06-14T05:28:02;99596.15;;;13.84;80.04
78431;BME280;67727;50.236;22.452;2023-06-14T05:30:30;99592.32;;;13.88;80.17
78431;BME280;67727;50.236;22.452;2023-06-14T05:32:57;99597.78;;;13.94;80.51
78431;BME280;67727;50.236;22.452;2023-06-14T05:35:24;99603.35;;;14.02;80.32
78431;BME280;67727;50.236;22.452;2023-06-14T05:37:53;99605.14;;;14.12;80.14
78431;BME280;67727;50.236;22.452;2023-06-14T05:40:20;99607.90;;;14.22;80.10
78431;BME280;67727;50.236;22.452;2023-06-14T05:42:47;99617.27;;;14.29;80.01
78431;BME280;67727;50.236;22.452;2023-06-14T05:45:14;99617.98;;;14.36;79.72
78431;BME280;67727;50.236;22.452;2023-06-14T05:47:42;99617.95;;;14.43;79.74
78431;BME280;67727;50.236;22.452;2023-06-14T05:50:09;99617.33;;;14.51;79.95
78431;BME280;67727;50.236;22.452;2023-06-14T05:52:36;99619.84;;;14.57;79.62
78431;BME280;67727;50.236;22.452;2023-06-14T05:55:04;99623.58;;;14.65;79.54
78431;BME280;67727;50.236;22.452;2023-06-14T05:57:31;99623.46;;;14.75;79.75
78431;BME280;67727;50.236;22.452;2023-06-14T05:59:58;99622.30;;;14.89;79.46
78431;BME280;67727;50.236;22.452;2023-06-14T06:02:25;99623.81;;;15.08;79.80
78431;BME280;67727;50.236;22.452;2023-06-14T06:04:52;99625.13;;;15.27;79.30
78431;BME280;67727;50.236;22.452;2023-06-14T06:07:19;99623.67;;;15.38;78.68
78431;BME280;67727;50.236;22.452;2023-06-14T06:09:46;99626.40;;;15.45;78.56
78431;BME280;67727;50.236;22.452;2023-06-14T06:12:12;99624.34;;;15.51;78.54
78431;BME280;67727;50.236;22.452;2023-06-14T06:14:39;99623.69;;;15.57;77.93
78431;BME280;67727;50.236;22.452;2023-06-14T06:17:06;99625.67;;;15.61;78.03
78431;BME280;67727;50.236;22.452;2023-06-14T06:19:33;99624.85;;;15.67;77.79
78431;BME280;67727;50.236;22.452;2023-06-14T06:22:00;99622.84;;;15.77;77.26
78431;BME280;67727;50.236;22.452;2023-06-14T06:24:27;99625.08;;;15.81;76.58
78431;BME280;67727;50.236;22.452;2023-06-14T06:26:53;99624.73;;;15.84;76.83
78431;BME280;67727;50.236;22.452;2023-06-14T06:29:20;99623.85;;;15.88;76.85
78431;BME280;67727;50.236;22.452;2023-06-14T06:31:47;99625.55;;;15.94;76.23
78431;BME280;67727;50.236;22.452;2023-06-14T06:34:14;99632.24;;;15.97;76.13
78431;BME280;67727;50.236;22.452;2023-06-14T06:36:41;99630.20;;;16.03;75.92
78431;BME280;67727;50.236;22.452;2023-06-14T06:39:08;99630.21;;;16.11;75.94
78431;BME280;67727;50.236;22.452;2023-06-14T06:41:38;99632.27;;;16.23;76.02
78431;BME280;67727;50.236;22.452;2023-06-14T06:44:07;99637.84;;;16.35;75.22
78431;BME280;67727;50.236;22.452;2023-06-14T06:46:34;99639.11;;;16.41;74.42
78431;BME280;67727;50.236;22.452;2023-06-14T06:49:01;99636.48;;;16.43;74.29
78431;BME280;67727;50.236;22.452;2023-06-14T06:51:28;99636.14;;;16.45;74.48
78431;BME280;67727;50.236;22.452;2023-06-14T06:53:55;99639.00;;;16.51;75.02
78431;BME280;67727;50.236;22.452;2023-06-14T06:57:58;99641.46;;;16.66;74.16
78431;BME280;67727;50.236;22.452;2023-06-14T07:00:26;99642.06;;;16.70;73.40
78431;BME280;67727;50.236;22.452;2023-06-14T07:02:53;99644.73;;;16.68;72.83
78431;BME280;67727;50.236;22.452;2023-06-14T07:05:21;99641.23;;;16.64;72.96
78431;BME280;67727;50.236;22.452;2023-06-14T07:07:48;99641.91;;;16.59;72.72
78431;BME280;67727;50.236;22.452;2023-06-14T07:10:15;99639.02;;;16.52;73.15
78431;BME280;67727;50.236;22.452;2023-06-14T07:12:42;99642.09;;;16.53;73.60
78431;BME280;67727;50.236;22.452;2023-06-14T07:15:09;99645.18;;;16.56;73.06
78431;BME280;67727;50.236;22.452;2023-06-14T07:17:36;99643.17;;;16.56;73.11
78431;BME280;67727;50.236;22.452;2023-06-14T07:20:04;99639.13;;;16.63;73.21
78431;BME280;67727;50.236;22.452;2023-06-14T07:22:41;99638.77;;;16.70;73.12
78431;BME280;67727;50.236;22.452;2023-06-14T07:25:10;99636.77;;;16.76;72.81
78431;BME280;67727;50.236;22.452;2023-06-14T07:27:41;99636.16;;;16.83;72.99
78431;BME280;67727;50.236;22.452;2023-06-14T07:30:09;99631.26;;;16.85;72.27
78431;BME280;67727;50.236;22.452;2023-06-14T07:32:36;99628.38;;;16.83;71.71
78431;BME280;67727;50.236;22.452;2023-06-14T07:35:04;99632.54;;;16.84;71.95
78431;BME280;67727;50.236;22.452;2023-06-14T07:37:31;99632.98;;;16.86;71.57
78431;BME280;67727;50.236;22.452;2023-06-14T07:39:58;99635.71;;;16.92;71.96
78431;BME280;67727;50.236;22.452;2023-06-14T07:42:25;99641.55;;;16.98;71.37
78431;BME280;67727;50.236;22.452;2023-06-14T07:44:52;99641.29;;;17.00;70.80
78431;BME280;67727;50.236;22.452;2023-06-14T07:47:20;99644.65;;;17.01;70.76
78431;BME280;67727;50.236;22.452;2023-06-14T07:49:47;99646.54;;;17.03;70.72
78431;BME280;67727;50.236;22.452;2023-06-14T07:52:14;99646.79;;;17.04;70.52
78431;BME280;67727;50.236;22.452;2023-06-14T07:54:40;99644.09;;;17.05;70.51
78431;BME280;67727;50.236;22.452;2023-06-14T07:57:08;99647.52;;;17.07;70.36
78431;BME280;67727;50.236;22.452;2023-06-14T07:59:35;99648.54;;;17.10;70.74
78431;BME280;67727;50.236;22.452;2023-06-14T08:02:02;99647.61;;;17.17;70.73
78431;BME280;67727;50.236;22.452;2023-06-14T08:04:29;99646.41;;;17.25;70.02
78431;BME280;67727;50.236;22.452;2023-06-14T08:06:58;99647.23;;;17.29;69.95
78431;BME280;67727;50.236;22.452;2023-06-14T08:09:25;99647.15;;;17.35;69.63
78431;BME280;67727;50.236;22.452;2023-06-14T08:11:54;99648.73;;;17.41;69.53
78431;BME280;67727;50.236;22.452;2023-06-14T08:14:21;99648.18;;;17.46;69.48
78431;BME280;67727;50.236;22.452;2023-06-14T08:16:49;99646.41;;;17.53;69.50
78431;BME280;67727;50.236;22.452;2023-06-14T08:19:16;99646.41;;;17.54;67.79
78431;BME280;67727;50.236;22.452;2023-06-14T08:21:46;99649.87;;;17.54;68.54
78431;BME280;67727;50.236;22.452;2023-06-14T08:24:13;99646.70;;;17.60;68.11
78431;BME280;67727;50.236;22.452;2023-06-14T08:26:43;99649.65;;;17.62;67.77
78431;BME280;67727;50.236;22.452;2023-06-14T08:29:10;99642.88;;;17.57;67.98
78431;BME280;67727;50.236;22.452;2023-06-14T08:31:37;99641.89;;;17.56;69.25
78431;BME280;67727;50.236;22.452;2023-06-14T08:34:04;99641.56;;;17.56;68.84
78431;BME280;67727;50.236;22.452;2023-06-14T08:36:32;99638.84;;;17.55;69.14
78431;BME280;67727;50.236;22.452;2023-06-14T08:39:00;99638.23;;;17.59;69.73
78431;BME280;67727;50.236;22.452;2023-06-14T08:41:28;99637.63;;;17.70;69.88
78431;BME280;67727;50.236;22.452;2023-06-14T08:43:56;99634.83;;;17.78;68.78
78431;BME280;67727;50.236;22.452;2023-06-14T08:46:25;99635.28;;;17.87;68.34
78431;BME280;67727;50.236;22.452;2023-06-14T08:48:55;99637.57;;;17.96;68.89
78431;BME280;67727;50.236;22.452;2023-06-14T08:51:26;99633.20;;;18.02;67.27
78431;BME280;67727;50.236;22.452;2023-06-14T08:54:00;99635.08;;;18.06;67.84
78431;BME280;67727;50.236;22.452;2023-06-14T08:56:29;99637.94;;;18.15;66.92
78431;BME280;67727;50.236;22.452;2023-06-14T08:58:58;99641.33;;;18.21;67.63
78431;BME280;67727;50.236;22.452;2023-06-14T09:01:33;99642.77;;;18.31;67.63
78431;BME280;67727;50.236;22.452;2023-06-14T09:04:01;99641.24;;;18.35;67.05
78431;BME280;67727;50.236;22.452;2023-06-14T09:06:29;99641.68;;;18.29;66.35
78431;BME280;67727;50.236;22.452;2023-06-14T09:08:57;99644.58;;;18.22;66.94
78431;BME280;67727;50.236;22.452;2023-06-14T09:11:24;99645.42;;;18.14;66.51
78431;BME280;67727;50.236;22.452;2023-06-14T09:13:52;99644.58;;;17.97;66.75
78431;BME280;67727;50.236;22.452;2023-06-14T09:16:19;99645.02;;;17.90;67.72
78431;BME280;67727;50.236;22.452;2023-06-14T09:18:47;99642.60;;;17.84;68.07
78431;BME280;67727;50.236;22.452;2023-06-14T09:21:18;99645.77;;;17.84;68.69
78431;BME280;67727;50.236;22.452;2023-06-14T09:23:51;99645.81;;;17.84;68.17
78431;BME280;67727;50.236;22.452;2023-06-14T09:26:20;99648.86;;;17.80;68.28
78431;BME280;67727;50.236;22.452;2023-06-14T09:28:49;99648.91;;;17.76;68.36
78431;BME280;67727;50.236;22.452;2023-06-14T09:31:18;99649.95;;;17.70;68.58
78431;BME280;67727;50.236;22.452;2023-06-14T09:33:49;99648.69;;;17.65;69.01
78431;BME280;67727;50.236;22.452;2023-06-14T09:36:23;99653.67;;;17.65;69.16
78431;BME280;67727;50.236;22.452;2023-06-14T09:38:52;99654.02;;;17.62;69.38
78431;BME280;67727;50.236;22.452;2023-06-14T09:41:20;99652.54;;;17.56;69.43
78431;BME280;67727;50.236;22.452;2023-06-14T09:43:47;99654.27;;;17.47;69.72
78431;BME280;67727;50.236;22.452;2023-06-14T09:46:14;99656.09;;;17.47;70.04
78431;BME280;67727;50.236;22.452;2023-06-14T09:48:41;99655.23;;;17.54;70.24
78431;BME280;67727;50.236;22.452;2023-06-14T09:51:13;99653.82;;;17.66;70.63
78431;BME280;67727;50.236;22.452;2023-06-14T09:53:42;99654.28;;;17.80;70.17
78431;BME280;67727;50.236;22.452;2023-06-14T09:56:11;99649.17;;;17.91;69.88
78431;BME280;67727;50.236;22.452;2023-06-14T09:58:39;99647.73;;;18.07;69.94
78431;BME280;67727;50.236;22.452;2023-06-14T10:01:08;99649.95;;;18.31;70.20
78431;BME280;67727;50.236;22.452;2023-06-14T10:03:36;99648.45;;;18.57;69.58
78431;BME280;67727;50.236;22.452;2023-06-14T10:06:08;99648.35;;;18.76;67.48
78431;BME280;67727;50.236;22.452;2023-06-14T10:08:36;99649.70;;;18.86;66.90
78431;BME280;67727;50.236;22.452;2023-06-14T10:11:04;99649.19;;;18.95;65.68
78431;BME280;67727;50.236;22.452;2023-06-14T10:13:32;99653.45;;;19.03;65.38
78431;BME280;67727;50.236;22.452;2023-06-14T10:16:12;99651.69;;;19.08;63.06
78431;BME280;67727;50.236;22.452;2023-06-14T10:23:49;99651.95;;;19.05;61.53
78431;BME280;67727;50.236;22.452;2023-06-14T10:26:20;99651.63;;;19.10;62.66
78431;BME280;67727;50.236;22.452;2023-06-14T10:29:10;99645.51;;;19.15;61.72
78431;BME280;67727;50.236;22.452;2023-06-14T10:34:31;99633.59;;;19.29;61.90
78431;BME280;67727;50.236;22.452;2023-06-14T10:37:14;99628.91;;;19.52;61.26
78431;BME280;67727;50.236;22.452;2023-06-14T10:39:44;99629.66;;;19.73;61.48
78431;BME280;67727;50.236;22.452;2023-06-14T10:42:13;99629.11;;;19.94;61.62
78431;BME280;67727;50.236;22.452;2023-06-14T10:44:42;99628.34;;;20.11;60.79
78431;BME280;67727;50.236;22.452;2023-06-14T10:47:19;99630.08;;;20.14;60.30
78431;BME280;67727;50.236;22.452;2023-06-14T10:49:52;99630.90;;;20.28;59.02
78431;BME280;67727;50.236;22.452;2023-06-14T10:52:27;99632.17;;;20.31;59.02
78431;BME280;67727;50.236;22.452;2023-06-14T10:57:25;99628.66;;;20.39;58.25
78431;BME280;67727;50.236;22.452;2023-06-14T10:59:52;99630.15;;;20.30;58.90
78431;BME280;67727;50.236;22.452;2023-06-14T11:04:50;99622.20;;;20.24;60.06
78431;BME280;67727;50.236;22.452;2023-06-14T11:10:05;99616.16;;;20.63;59.38
78431;BME280;67727;50.236;22.452;2023-06-14T11:12:39;99614.21;;;20.78;59.74
78431;BME280;67727;50.236;22.452;2023-06-14T11:15:06;99613.52;;;20.85;59.19
78431;BME280;67727;50.236;22.452;2023-06-14T11:17:33;99615.05;;;20.91;57.96
78431;BME280;67727;50.236;22.452;2023-06-14T11:20:10;99613.28;;;20.91;58.86
78431;BME280;67727;50.236;22.452;2023-06-14T11:22:42;99619.19;;;21.04;58.07
78431;BME280;67727;50.236;22.452;2023-06-14T11:25:11;99617.42;;;21.09;58.17
78431;BME280;67727;50.236;22.452;2023-06-14T11:27:38;99613.02;;;20.99;58.03
78431;BME280;67727;50.236;22.452;2023-06-14T11:30:07;99607.63;;;21.06;58.58
78431;BME280;67727;50.236;22.452;2023-06-14T11:32:39;99606.48;;;21.20;58.03
78431;BME280;67727;50.236;22.452;2023-06-14T11:35:07;99608.08;;;21.26;56.29
78431;BME280;67727;50.236;22.452;2023-06-14T11:37:36;99605.05;;;21.27;57.40
78431;BME280;67727;50.236;22.452;2023-06-14T11:40:07;99604.14;;;21.29;57.20
78431;BME280;67727;50.236;22.452;2023-06-14T11:42:39;99605.20;;;21.37;57.79
78431;BME280;67727;50.236;22.452;2023-06-14T11:45:11;99605.32;;;21.47;57.84
78431;BME280;67727;50.236;22.452;2023-06-14T11:47:39;99602.64;;;21.49;57.12
78431;BME280;67727;50.236;22.452;2023-06-14T11:50:07;99610.35;;;21.49;57.57
78431;BME280;67727;50.236;22.452;2023-06-14T11:52:36;99617.34;;;21.52;57.61
78431;BME280;67727;50.236;22.452;2023-06-14T11:55:04;99618.14;;;21.58;58.02
78431;BME280;67727;50.236;22.452;2023-06-14T11:57:35;99617.30;;;21.60;57.59
78431;BME280;67727;50.236;22.452;2023-06-14T12:00:04;99617.02;;;21.48;56.49
78431;BME280;67727;50.236;22.452;2023-06-14T12:02:38;99621.02;;;21.44;57.09
78431;BME280;67727;50.236;22.452;2023-06-14T12:05:08;99620.02;;;21.50;56.94
78431;BME280;67727;50.236;22.452;2023-06-14T12:07:37;99623.55;;;21.43;56.72
78431;BME280;67727;50.236;22.452;2023-06-14T12:10:09;99619.93;;;21.38;57.05
78431;BME280;67727;50.236;22.452;2023-06-14T12:12:38;99618.08;;;21.46;57.42
78431;BME280;67727;50.236;22.452;2023-06-14T12:15:07;99617.70;;;21.62;57.06
78431;BME280;67727;50.236;22.452;2023-06-14T12:17:35;99613.42;;;21.79;56.16
78431;BME280;67727;50.236;22.452;2023-06-14T12:20:09;99608.13;;;21.82;56.34
78431;BME280;67727;50.236;22.452;2023-06-14T12:23:07;99604.29;;;21.96;55.57
78431;BME280;67727;50.236;22.452;2023-06-14T12:25:36;99605.20;;;22.17;55.33
78431;BME280;67727;50.236;22.452;2023-06-14T12:28:08;99603.42;;;22.41;55.60
78431;BME280;67727;50.236;22.452;2023-06-14T12:30:37;99598.42;;;22.62;54.17
78431;BME280;67727;50.236;22.452;2023-06-14T12:33:04;99597.95;;;22.78;54.60
78431;BME280;67727;50.236;22.452;2023-06-14T12:35:32;99597.58;;;22.91;54.13
78431;BME280;67727;50.236;22.452;2023-06-14T12:37:59;99595.68;;;22.98;53.49
78431;BME280;67727;50.236;22.452;2023-06-14T12:40:27;99600.86;;;22.96;52.65
78431;BME280;67727;50.236;22.452;2023-06-14T12:42:54;99598.75;;;22.84;52.79
78431;BME280;67727;50.236;22.452;2023-06-14T12:45:21;99600.11;;;22.64;53.38
78431;BME280;67727;50.236;22.452;2023-06-14T12:47:50;99599.23;;;22.46;52.95
78431;BME280;67727;50.236;22.452;2023-06-14T12:50:17;99599.12;;;22.20;53.35
78431;BME280;67727;50.236;22.452;2023-06-14T12:52:43;99599.54;;;21.97;53.05
78431;BME280;67727;50.236;22.452;2023-06-14T12:55:12;99594.83;;;21.72;53.64
78431;BME280;67727;50.236;22.452;2023-06-14T12:57:41;99592.05;;;21.56;54.35
78431;BME280;67727;50.236;22.452;2023-06-14T13:00:08;99588.79;;;21.45;54.81
78431;BME280;67727;50.236;22.452;2023-06-14T13:02:35;99591.35;;;21.48;55.28
78431;BME280;67727;50.236;22.452;2023-06-14T13:05:02;99592.02;;;21.53;55.16
78431;BME280;67727;50.236;22.452;2023-06-14T13:07:30;99588.95;;;21.59;54.69
78431;BME280;67727;50.236;22.452;2023-06-14T13:09:57;99588.27;;;21.51;53.79
78431;BME280;67727;50.236;22.452;2023-06-14T13:12:24;99587.98;;;21.41;54.80
78431;BME280;67727;50.236;22.452;2023-06-14T13:14:51;99587.83;;;21.46;54.68
78431;BME280;67727;50.236;22.452;2023-06-14T13:17:18;99583.80;;;21.35;54.14
78431;BME280;67727;50.236;22.452;2023-06-14T13:19:44;99582.38;;;21.24;54.95